CST,Max TemperatureF,Mean TemperatureF,Min TemperatureF,Max Dew PointF,MeanDew PointF,Min DewpointF,Max Humidity, Mean Humidity, Min Humidity, Max Sea Level PressureIn, Mean Sea Level PressureIn, Min Sea Level PressureIn, Max VisibilityMiles, Mean VisibilityMiles, Min VisibilityMiles, Max Wind SpeedMPH, Mean Wind SpeedMPH, Max Gust SpeedMPH,PrecipitationIn, CloudCover, Events, WindDirDegrees
2014-1-1,7,2,-3,-5,-9,-13,68,60,50,30.37,30.32,30.29,10,10,10,12,6,,0.00,7,,34
2014-1-2,11,1,-10,-1,-6,-14,82,65,44,30.40,30.33,30.26,10,9,3,10,5,,0.00,3,,2
2014-1-3,18,2,-14,11,-3,-20,82,74,64,30.38,30.06,29.67,10,10,3,24,8,34,0.00,2,,191
2014-1-4,31,22,12,26,14,2,82,69,62,30.10,29.80,29.58,10,10,10,24,16,33,0.00,4,,273
2014-1-5,12,0,-11,1,-11,-21,69,57,43,30.19,30.13,30.09,10,10,10,16,9,23,0.00,3,,332
2014-1-6,-11,-16,-21,-20,-27,-34,68,57,49,30.16,30.12,30.09,10,9,3,18,13,25,0.00,3,,281
2014-1-7,1,-8,-16,-12,-18,-25,71,62,50,30.23,30.15,30.10,10,10,10,13,7,16,0.00,0,,248
2014-1-8,7,-3,-13,-5,-12,-18,81,70,54,30.46,30.36,30.21,10,10,10,7,1,,0.00,0,,249
2014-1-9,20,1,-17,18,-3,-23,92,74,51,30.46,30.29,30.05,10,9,2,10,2,,0.00,4,,168
2014-1-10,33,26,20,32,27,18,99,96,93,30.04,29.76,29.43,10,2,0,13,6,,0.02,8,Fog-Rain,161
2014-1-11,32,30,26,32,27,23,99,88,81,29.73,29.52,29.40,10,7,2,14,7,22,0.02,8,,283
2014-1-12,40,30,21,31,26,20,96,77,57,29.73,29.58,29.47,10,10,5,22,11,26,0.00,3,,211
2014-1-13,38,31,24,31,26,18,85,75,54,29.69,29.58,29.49,10,10,10,16,7,22,0.00,5,,258
2014-1-14,32,23,13,31,22,8,96,86,76,29.92,29.63,29.44,10,5,0,22,10,29,0.04,8,Snow,268
2014-1-15,17,12,8,12,4,2,80,74,62,30.05,29.92,29.58,10,10,7,18,10,26,0.00,6,Snow,258
2014-1-16,32,20,9,28,15,0,87,74,59,29.70,29.50,29.37,10,9,2,22,14,28,0.00,8,Snow,253
2014-1-17,18,12,5,10,6,0,85,73,64,29.93,29.82,29.69,10,8,1,15,9,21,0.00,8,Snow,295
2014-1-18,16,8,0,11,4,-4,90,82,74,29.88,29.80,29.72,10,8,1,10,2,,0.00,5,Snow,94
2014-1-19,34,23,12,26,18,10,90,75,60,29.76,29.56,29.44,10,10,10,20,11,25,0.00,3,,250
2014-1-20,30,17,3,26,12,-6,89,76,58,30.23,29.91,29.62,10,9,2,15,6,23,0.00,8,Snow,29
2014-1-21,3,-2,-8,-7,-12,-15,73,62,49,30.34,30.24,30.08,10,10,10,12,7,18,0.00,2,,307
2014-1-22,9,3,-3,2,-7,-15,78,66,50,30.21,29.98,29.85,10,7,1,20,7,28,0.00,6,Snow,279
2014-1-23,5,-2,-10,-10,-14,-18,71,61,47,30.54,30.45,30.21,10,10,5,17,11,26,0.00,1,,296
2014-1-24,30,10,-9,27,5,-16,92,69,54,30.36,29.76,29.37,10,9,1,23,14,33,0.00,6,Snow,233
2014-1-25,30,16,2,26,-5,-12,81,48,31,29.80,29.64,29.37,10,10,5,21,15,34,0.00,2,,297
2014-1-26,21,10,0,13,2,-9,84,73,50,29.83,29.48,29.32,10,4,0,24,8,39,0.05,7,Snow,262
2014-1-27,0,-6,-13,-8,-20,-24,68,56,44,30.34,30.18,29.85,10,10,2,20,13,30,0.00,2,,287
2014-1-28,2,-7,-16,-12,-17,-23,73,62,44,30.34,30.23,30.10,10,10,10,15,8,21,0.00,0,,253
2014-1-29,24,10,-4,10,-3,-13,69,57,39,30.10,29.96,29.72,10,10,7,23,10,31,0.00,1,,226
2014-1-30,30,21,11,25,15,2,90,68,52,29.92,29.65,29.48,10,9,0,24,17,31,0.00,6,Snow,231
2014-1-31,11,4,-4,2,-6,-10,79,67,50,30.14,30.06,29.93,10,10,10,8,3,,0.00,0,,277